Rock Glen, New York
Current Conditions -  °F | °C
As of 2:20 AM on Friday 19 Dec 2014 (Local Time) from KDSV Reporting Station
Overcast Overcast  
Wind Chill: 18°   Ceiling: 1300
Heat Index: 28°   Visibility: 8mi
Dew Point: 24°   Wind: 12mph
Humidity: 85%   Direction: 330°NNW
Pressure: 30.07"   Gusts: NA
Location:  42.674°N, 78.109°W
Report Text: KDSV 190720Z AUTO 33010KT 8SM OVC013 M02/M04 A3007 RMK AO2 T10221044
Loading
Personal Weather Stations






























Interactive Weather Map New forecast layout! Learn more

10-Day Weather Forecast

Advertisements
Track Severe Weather on mobile